createdAt,value
2022-07-29T00:00:10.999Z,100.00
2022-07-29T00:02:58.339Z,100.00
2022-07-29T00:05:25.971Z,100.00
2022-07-29T00:07:53.088Z,100.00
2022-07-29T00:10:22.513Z,100.00
2022-07-29T00:12:49.973Z,100.00
2022-07-29T00:15:17.299Z,100.00
2022-07-29T00:17:44.497Z,100.00
2022-07-29T00:20:12.193Z,100.00
2022-07-29T00:22:40.261Z,100.00
2022-07-29T00:25:09.215Z,100.00
2022-07-29T00:27:37.645Z,100.00
2022-07-29T00:30:06.257Z,100.00
2022-07-29T00:32:33.522Z,100.00
2022-07-29T00:35:19.983Z,100.00
2022-07-29T00:37:47.272Z,100.00
2022-07-29T00:40:14.651Z,100.00
2022-07-29T00:42:49.808Z,100.00
2022-07-29T00:45:17.912Z,100.00
2022-07-29T00:47:45.973Z,100.00
2022-07-29T00:50:14.463Z,100.00
2022-07-29T00:52:43.080Z,100.00
2022-07-29T00:55:16.103Z,100.00
2022-07-29T00:57:44.829Z,100.00
2022-07-29T01:00:18.433Z,100.00
2022-07-29T01:02:49.265Z,100.00
2022-07-29T01:05:19.779Z,100.00
2022-07-29T01:07:48.062Z,100.00
2022-07-29T01:10:16.103Z,100.00
2022-07-29T01:12:44.905Z,100.00
2022-07-29T01:15:12.476Z,100.00
2022-07-29T01:18:18.290Z,100.00
2022-07-29T01:20:56.937Z,100.00
2022-07-29T01:23:45.717Z,100.00
2022-07-29T01:26:22.430Z,100.00
2022-07-29T01:28:59.230Z,100.00
2022-07-29T01:31:36.597Z,100.00
2022-07-29T01:34:10.112Z,100.00
2022-07-29T01:36:50.256Z,100.00
2022-07-29T01:39:21.194Z,100.00
2022-07-29T01:42:08.762Z,100.00
2022-07-29T01:44:41.167Z,100.00
2022-07-29T01:47:13.875Z,100.00
2022-07-29T01:49:44.539Z,100.00
2022-07-29T01:52:21.520Z,100.00
2022-07-29T01:54:57.354Z,100.00
2022-07-29T01:57:28.257Z,100.00
2022-07-29T01:59:55.983Z,100.00
2022-07-29T02:02:23.767Z,100.00
2022-07-29T02:04:51.342Z,100.00
2022-07-29T02:07:21.291Z,100.00
2022-07-29T02:09:49.299Z,100.00
2022-07-29T02:12:19.245Z,100.00
2022-07-29T02:14:49.932Z,100.00
2022-07-29T02:17:22.959Z,100.00
2022-07-29T02:19:50.547Z,100.00
2022-07-29T02:22:19.806Z,100.00
2022-07-29T02:24:48.720Z,100.00
2022-07-29T02:27:16.832Z,100.00
2022-07-29T02:29:44.381Z,100.00
2022-07-29T02:32:12.610Z,100.00
2022-07-29T02:34:41.117Z,100.00
2022-07-29T02:37:10.663Z,100.00
2022-07-29T02:39:38.730Z,100.00
2022-07-29T02:42:08.831Z,100.00
2022-07-29T02:44:36.184Z,100.00
2022-07-29T02:47:18.744Z,100.00
2022-07-29T02:50:12.601Z,100.00
2022-07-29T02:52:45.609Z,100.00
2022-07-29T02:55:37.213Z,100.00
2022-07-29T02:58:29.301Z,100.00
2022-07-29T03:01:06.459Z,100.00
2022-07-29T03:03:37.825Z,100.00
2022-07-29T03:06:06.351Z,100.00
2022-07-29T03:08:33.894Z,100.00
2022-07-29T03:11:02.279Z,100.00
2022-07-29T03:13:30.661Z,100.00
2022-07-29T03:15:59.067Z,100.00
2022-07-29T03:18:26.979Z,100.00
2022-07-29T03:20:54.310Z,100.00
2022-07-29T03:23:23.778Z,100.00
2022-07-29T03:25:51.819Z,100.00
2022-07-29T03:28:20.504Z,100.00
2022-07-29T03:30:49.776Z,100.00
2022-07-29T03:33:17.270Z,100.00
2022-07-29T03:35:44.461Z,100.00
2022-07-29T03:38:11.640Z,100.00
2022-07-29T03:40:44.455Z,100.00
2022-07-29T03:43:12.411Z,100.00
2022-07-29T03:45:40.250Z,100.00
2022-07-29T03:48:10.045Z,100.00
2022-07-29T03:50:37.496Z,100.00
2022-07-29T03:53:04.943Z,100.00
2022-07-29T03:55:43.526Z,100.00
2022-07-29T03:58:12.096Z,100.00
2022-07-29T04:00:39.928Z,100.00
2022-07-29T04:03:10.680Z,100.00
2022-07-29T04:05:39.535Z,100.00
2022-07-29T04:08:06.841Z,100.00
2022-07-29T04:10:34.248Z,100.00
2022-07-29T04:13:03.342Z,100.00
2022-07-29T04:15:31.865Z,100.00
2022-07-29T04:18:00.181Z,100.00
2022-07-29T04:20:27.954Z,100.00
2022-07-29T04:22:55.311Z,100.00
2022-07-29T04:25:22.598Z,100.00
2022-07-29T04:28:01.775Z,100.00
2022-07-29T04:30:30.144Z,100.00
2022-07-29T04:32:57.383Z,100.00
2022-07-29T04:35:24.684Z,100.00
2022-07-29T04:37:51.994Z,100.00
2022-07-29T04:40:19.417Z,100.00
2022-07-29T04:42:47.791Z,100.00
2022-07-29T04:45:16.086Z,100.00
2022-07-29T04:47:43.378Z,100.00
2022-07-29T04:50:10.994Z,100.00
2022-07-29T04:52:38.551Z,100.00
2022-07-29T04:55:06.508Z,100.00
2022-07-29T04:57:33.687Z,100.00
2022-07-29T05:00:01.234Z,100.00
2022-07-29T05:02:28.482Z,100.00
2022-07-29T05:04:55.687Z,100.00
2022-07-29T05:07:23.281Z,100.00
2022-07-29T05:09:50.455Z,100.00
2022-07-29T05:12:19.805Z,100.00
2022-07-29T05:14:47.152Z,100.00
2022-07-29T05:17:14.474Z,100.00
2022-07-29T05:19:41.784Z,100.00
2022-07-29T05:22:09.489Z,100.00
2022-07-29T05:24:36.712Z,100.00
2022-07-29T05:27:03.930Z,100.00
2022-07-29T05:29:44.153Z,100.00
2022-07-29T05:32:13.733Z,100.00
2022-07-29T05:34:50.825Z,100.00
2022-07-29T05:37:21.871Z,100.00
2022-07-29T05:39:56.190Z,100.00
2022-07-29T05:42:25.321Z,100.00
2022-07-29T05:44:53.274Z,100.00
2022-07-29T05:47:20.393Z,100.00
2022-07-29T05:49:47.603Z,100.00
2022-07-29T05:52:15.417Z,100.00
2022-07-29T05:54:42.625Z,100.00
2022-07-29T05:57:10.054Z,100.00
2022-07-29T05:59:38.242Z,100.00
2022-07-29T06:02:06.156Z,100.00
2022-07-29T06:04:34.741Z,100.00
2022-07-29T06:07:02.868Z,100.00
2022-07-29T06:09:30.585Z,99.99
2022-07-29T06:11:58.916Z,98.92
2022-07-29T06:14:27.554Z,99.44
2022-07-29T06:16:54.947Z,99.91
2022-07-29T06:19:22.254Z,97.62
2022-07-29T06:21:51.179Z,97.18
2022-07-29T06:24:19.059Z,95.88
2022-07-29T06:26:46.641Z,95.57
2022-07-29T06:29:14.156Z,94.01
2022-07-29T06:31:41.533Z,92.60
2022-07-29T06:34:08.820Z,93.84
2022-07-29T06:36:39.828Z,94.38
2022-07-29T06:39:09.128Z,90.79
2022-07-29T06:41:36.753Z,90.80
2022-07-29T06:44:10.417Z,90.95
2022-07-29T06:46:37.741Z,90.95
2022-07-29T06:49:05.919Z,87.75
2022-07-29T06:51:33.383Z,87.56
2022-07-29T06:54:03.362Z,86.04
2022-07-29T06:56:38.605Z,85.37
2022-07-29T06:59:10.812Z,83.53
2022-07-29T07:01:39.540Z,83.86
2022-07-29T07:04:07.134Z,82.02
2022-07-29T07:06:34.664Z,83.30
2022-07-29T07:09:02.200Z,83.02
2022-07-29T07:11:29.789Z,83.06
2022-07-29T07:14:02.453Z,83.97
2022-07-29T07:16:30.837Z,84.98
2022-07-29T07:18:58.234Z,82.91
2022-07-29T07:21:25.518Z,80.96
2022-07-29T07:23:52.659Z,83.32
2022-07-29T07:26:20.185Z,81.71
2022-07-29T07:28:47.329Z,79.20
2022-07-29T07:31:15.243Z,78.99
2022-07-29T07:33:42.762Z,79.07
2022-07-29T07:36:09.972Z,80.22
2022-07-29T07:38:37.068Z,77.72
2022-07-29T07:41:04.614Z,74.71
2022-07-29T07:43:31.927Z,77.21
2022-07-29T07:45:59.354Z,77.35
2022-07-29T07:48:26.839Z,77.67
2022-07-29T07:50:54.069Z,77.96
2022-07-29T07:53:22.207Z,77.07
2022-07-29T07:58:37.304Z,78.93
2022-07-29T08:01:04.797Z,74.25
2022-07-29T08:03:31.928Z,77.46
2022-07-29T08:05:59.480Z,74.18
2022-07-29T08:08:26.779Z,76.18
2022-07-29T08:10:53.932Z,74.90
2022-07-29T08:13:22.754Z,75.52
2022-07-29T08:15:58.856Z,72.22
2022-07-29T08:18:27.452Z,74.28
2022-07-29T08:20:55.171Z,71.59
2022-07-29T08:23:23.744Z,70.30
2022-07-29T08:25:52.583Z,71.66
2022-07-29T08:28:25.756Z,73.99
2022-07-29T08:30:53.694Z,70.68
2022-07-29T08:33:20.927Z,72.97
2022-07-29T08:35:48.239Z,73.88
2022-07-29T08:38:15.651Z,72.36
2022-07-29T08:40:43.003Z,75.28
2022-07-29T08:43:10.601Z,70.78
2022-07-29T08:45:44.822Z,71.59
2022-07-29T08:48:21.585Z,71.94
2022-07-29T08:50:51.450Z,74.08
2022-07-29T08:53:19.771Z,69.80
2022-07-29T08:55:49.255Z,70.81
2022-07-29T08:58:17.868Z,69.83
2022-07-29T09:00:56.969Z,71.30
2022-07-29T09:03:27.311Z,70.20
2022-07-29T09:05:54.992Z,75.25
2022-07-29T09:08:22.440Z,73.76
2022-07-29T09:10:50.274Z,70.53
2022-07-29T09:13:17.714Z,70.19
2022-07-29T09:15:45.571Z,73.61
2022-07-29T09:18:19.501Z,74.59
2022-07-29T09:21:16.454Z,75.45
2022-07-29T09:24:00.634Z,72.31
2022-07-29T09:26:32.499Z,75.05
2022-07-29T09:29:00.452Z,71.85
2022-07-29T09:31:36.315Z,66.54
2022-07-29T09:34:04.881Z,68.01
2022-07-29T09:36:32.210Z,68.98
2022-07-29T09:39:04.188Z,69.27
2022-07-29T09:41:45.459Z,70.25
2022-07-29T09:44:12.753Z,71.84
2022-07-29T09:46:40.366Z,74.45
2022-07-29T09:49:13.445Z,71.25
2022-07-29T09:51:41.425Z,71.25
2022-07-29T09:54:28.653Z,71.30
2022-07-29T09:56:56.919Z,69.55
2022-07-29T09:59:27.597Z,67.10
2022-07-29T10:01:55.482Z,65.21
2022-07-29T10:04:23.327Z,61.92
2022-07-29T10:07:04.856Z,62.64
2022-07-29T10:09:34.302Z,60.31
2022-07-29T10:12:08.120Z,59.37
2022-07-29T10:14:35.660Z,64.87
2022-07-29T10:17:04.628Z,62.49
2022-07-29T10:19:32.613Z,63.29
2022-07-29T10:22:00.882Z,60.68
2022-07-29T10:24:29.059Z,66.11
2022-07-29T10:26:56.906Z,63.96
2022-07-29T10:29:26.023Z,60.63
2022-07-29T10:32:23.945Z,64.88
2022-07-29T10:35:29.024Z,65.40
2022-07-29T10:38:17.469Z,60.80
2022-07-29T10:41:19.446Z,62.61
2022-07-29T10:43:48.073Z,61.28
2022-07-29T10:46:19.563Z,61.76
2022-07-29T10:49:15.303Z,61.92
2022-07-29T10:52:06.773Z,60.66
2022-07-29T10:54:44.109Z,61.13
2022-07-29T11:00:16.866Z,57.70
2022-07-29T11:02:46.932Z,55.30
2022-07-29T11:05:20.182Z,55.17
2022-07-29T11:08:26.023Z,57.08
2022-07-29T11:11:19.956Z,56.61
2022-07-29T11:13:52.315Z,54.24
2022-07-29T11:16:23.131Z,55.65
2022-07-29T11:19:11.326Z,54.49
2022-07-29T11:21:53.715Z,55.65
2022-07-29T11:27:18.160Z,53.89
2022-07-29T11:30:06.184Z,55.84
2022-07-29T11:32:40.066Z,55.15
2022-07-29T11:35:17.548Z,55.56
2022-07-29T11:37:52.225Z,56.64
2022-07-29T11:40:23.094Z,58.80
2022-07-29T11:42:51.911Z,58.45
2022-07-29T11:51:12.077Z,53.83
2022-07-29T11:53:40.925Z,53.48
2022-07-29T11:56:10.389Z,54.34
2022-07-29T11:58:38.302Z,54.69
2022-07-29T12:01:07.319Z,56.12
2022-07-29T12:03:36.874Z,53.09
2022-07-29T12:06:13.472Z,50.56
2022-07-29T12:07:03.911Z,52.93
2022-07-29T12:08:43.627Z,49.59
2022-07-29T12:11:23.388Z,50.68
2022-07-29T12:13:52.169Z,51.24
2022-07-29T12:16:26.080Z,52.43
2022-07-29T12:19:02.142Z,48.89
2022-07-29T12:21:31.037Z,53.40
2022-07-29T12:24:05.758Z,51.03
2022-07-29T12:26:36.620Z,50.92
2022-07-29T12:29:11.329Z,50.25
2022-07-29T12:31:43.256Z,51.75
2022-07-29T12:34:14.232Z,51.61
2022-07-29T12:36:43.106Z,50.25
2022-07-29T12:39:11.641Z,49.51
2022-07-29T12:41:40.018Z,51.91
2022-07-29T12:44:07.369Z,51.91
2022-07-29T12:46:34.682Z,50.89
2022-07-29T12:49:04.157Z,52.04
2022-07-29T12:51:37.742Z,49.72
2022-07-29T12:54:14.478Z,53.08
2022-07-29T12:56:44.295Z,52.59
2022-07-29T12:59:21.065Z,54.78
2022-07-29T13:01:50.442Z,50.75
2022-07-29T13:04:31.742Z,51.33
2022-07-29T13:07:10.454Z,51.32
2022-07-29T13:09:39.053Z,53.01
2022-07-29T13:12:11.197Z,51.13
2022-07-29T13:14:40.719Z,50.49
2022-07-29T13:17:22.395Z,47.96
2022-07-29T13:19:54.654Z,52.07
2022-07-29T13:22:23.818Z,50.48
2022-07-29T13:24:55.077Z,51.86
2022-07-29T13:27:24.534Z,50.85
2022-07-29T13:29:57.403Z,51.72
2022-07-29T13:32:28.745Z,49.86
2022-07-29T13:34:57.681Z,51.02
2022-07-29T13:37:25.216Z,50.91
2022-07-29T13:39:53.614Z,52.96
2022-07-29T13:42:20.973Z,52.33
2022-07-29T13:44:49.671Z,49.57
2022-07-29T13:47:17.349Z,51.45
2022-07-29T13:49:44.901Z,54.72
2022-07-29T13:52:12.114Z,51.54
2022-07-29T13:54:42.353Z,51.19
2022-07-29T13:57:14.105Z,48.37
2022-07-29T13:59:42.998Z,49.58
2022-07-29T14:02:11.428Z,48.30
2022-07-29T14:04:39.689Z,46.52
2022-07-29T14:07:07.474Z,45.14
2022-07-29T14:09:41.089Z,51.17
2022-07-29T14:12:09.682Z,50.74
2022-07-29T14:14:37.771Z,49.12
2022-07-29T14:17:07.598Z,53.39
2022-07-29T14:19:39.357Z,54.34
2022-07-29T14:22:08.523Z,49.01
2022-07-29T14:24:37.702Z,51.42
2022-07-29T14:27:08.905Z,49.08
2022-07-29T14:29:37.765Z,51.80
2022-07-29T14:32:08.201Z,47.74
2022-07-29T14:34:39.132Z,49.96
2022-07-29T14:37:07.267Z,50.28
2022-07-29T14:39:42.677Z,48.36
2022-07-29T14:42:12.767Z,49.37
2022-07-29T14:44:42.099Z,51.63
2022-07-29T14:47:09.552Z,47.31
2022-07-29T14:49:37.223Z,49.56
2022-07-29T14:52:05.318Z,46.28
2022-07-29T14:54:32.452Z,46.88
2022-07-29T14:56:59.969Z,46.06
2022-07-29T14:59:27.446Z,45.74
2022-07-29T15:01:54.933Z,44.63
2022-07-29T15:04:22.709Z,46.04
2022-07-29T15:06:50.237Z,44.32
2022-07-29T15:09:17.517Z,45.53
2022-07-29T15:11:45.330Z,44.33
2022-07-29T15:14:12.559Z,44.72
2022-07-29T15:16:41.923Z,46.30
2022-07-29T15:19:12.069Z,48.54
2022-07-29T15:21:41.448Z,44.90
2022-07-29T15:24:17.433Z,46.61
2022-07-29T15:26:45.657Z,48.11
2022-07-29T15:29:13.057Z,48.88
2022-07-29T15:31:40.673Z,49.98
2022-07-29T15:34:08.778Z,47.41
2022-07-29T15:36:51.467Z,47.45
2022-07-29T15:39:21.097Z,47.16
2022-07-29T15:41:48.425Z,50.72
2022-07-29T15:44:15.651Z,50.70
2022-07-29T15:47:02.199Z,47.87
2022-07-29T15:49:47.763Z,49.32
2022-07-29T15:52:26.215Z,50.12
2022-07-29T15:54:57.998Z,49.88
2022-07-29T15:57:25.765Z,49.27
2022-07-29T15:59:53.354Z,48.31
2022-07-29T16:02:20.764Z,48.16
2022-07-29T16:04:48.347Z,50.35
2022-07-29T16:07:15.791Z,52.08
2022-07-29T16:09:45.469Z,49.77
2022-07-29T16:12:18.786Z,48.27
2022-07-29T16:14:46.004Z,47.15
2022-07-29T16:17:14.494Z,47.39
2022-07-29T16:19:43.526Z,49.45
2022-07-29T16:22:11.526Z,49.71
2022-07-29T16:24:39.485Z,50.58
2022-07-29T16:27:07.542Z,50.66
2022-07-29T16:29:34.850Z,48.70
2022-07-29T16:32:02.160Z,51.98
2022-07-29T16:34:29.747Z,52.65
2022-07-29T16:36:56.942Z,54.04
2022-07-29T16:39:23.979Z,54.96
2022-07-29T16:41:51.592Z,54.14
2022-07-29T16:44:18.753Z,52.51
2022-07-29T16:46:45.955Z,51.23
2022-07-29T16:49:18.360Z,49.76
2022-07-29T16:51:47.959Z,51.70
2022-07-29T16:54:15.606Z,51.17
2022-07-29T16:56:42.803Z,51.19
2022-07-29T16:59:09.922Z,52.25
2022-07-29T17:01:37.619Z,53.21
2022-07-29T17:04:07.912Z,53.31
2022-07-29T17:06:39.866Z,53.29
2022-07-29T17:09:10.253Z,53.63
2022-07-29T17:11:52.781Z,54.23
2022-07-29T17:14:30.532Z,53.59
2022-07-29T17:17:03.275Z,52.78
2022-07-29T17:19:32.828Z,53.76
2022-07-29T17:22:09.396Z,53.81
2022-07-29T17:24:40.262Z,54.01
2022-07-29T17:27:09.339Z,54.33
2022-07-29T17:29:36.855Z,54.46
2022-07-29T17:32:07.543Z,55.76
2022-07-29T17:34:36.657Z,56.43
2022-07-29T17:37:05.678Z,56.87
2022-07-29T17:39:35.152Z,56.49
2022-07-29T17:42:03.870Z,57.30
2022-07-29T17:44:31.389Z,57.80
2022-07-29T17:47:04.740Z,58.16
2022-07-29T17:49:32.046Z,58.78
2022-07-29T17:52:01.049Z,59.17
2022-07-29T17:54:28.923Z,58.92
2022-07-29T17:56:56.338Z,60.16
2022-07-29T17:59:23.823Z,60.20
2022-07-29T18:01:51.380Z,61.16
2022-07-29T18:04:21.127Z,61.54
2022-07-29T18:06:48.458Z,62.00
2022-07-29T18:09:15.933Z,62.34
2022-07-29T18:11:44.558Z,63.00
2022-07-29T18:14:13.553Z,63.02
2022-07-29T18:16:41.422Z,63.84
2022-07-29T18:19:08.809Z,64.20
2022-07-29T18:21:43.572Z,64.63
2022-07-29T18:24:27.600Z,65.34
2022-07-29T18:26:55.351Z,65.28
2022-07-29T18:29:22.654Z,66.45
2022-07-29T18:31:50.338Z,66.63
2022-07-29T18:34:17.973Z,67.30
2022-07-29T18:36:46.043Z,67.19
2022-07-29T18:39:19.671Z,67.20
2022-07-29T18:41:51.890Z,67.15
2022-07-29T18:44:21.950Z,65.65
2022-07-29T18:46:51.623Z,66.23
2022-07-29T18:49:19.275Z,66.06
2022-07-29T18:51:47.007Z,66.90
2022-07-29T18:54:14.290Z,67.84
2022-07-29T18:56:41.434Z,68.05
2022-07-29T18:59:08.889Z,69.02
2022-07-29T19:01:37.863Z,68.86
2022-07-29T19:04:05.348Z,68.93
2022-07-29T19:06:32.889Z,69.04
2022-07-29T19:09:00.271Z,69.49
2022-07-29T19:11:27.450Z,69.33
2022-07-29T19:13:54.966Z,70.16
2022-07-29T19:16:22.277Z,69.98
2022-07-29T19:18:49.571Z,70.00
2022-07-29T19:21:17.388Z,69.67
2022-07-29T19:24:05.220Z,70.18
2022-07-29T19:26:36.511Z,69.98
2022-07-29T19:29:04.386Z,70.15
2022-07-29T19:31:31.735Z,71.32
2022-07-29T19:33:59.294Z,70.82
2022-07-29T19:36:27.321Z,71.72
2022-07-29T19:38:54.524Z,71.94
2022-07-29T19:41:21.875Z,72.18
2022-07-29T19:43:50.632Z,71.98
2022-07-29T19:46:23.519Z,72.72
2022-07-29T19:48:52.946Z,73.44
2022-07-29T19:51:20.233Z,73.74
2022-07-29T19:53:47.494Z,73.88
2022-07-29T19:56:15.179Z,74.02
2022-07-29T19:58:44.152Z,73.93
2022-07-29T20:01:12.620Z,74.26
2022-07-29T20:03:40.346Z,74.55
2022-07-29T20:06:07.879Z,74.56
2022-07-29T20:08:35.038Z,75.25
2022-07-29T20:11:03.429Z,74.99
2022-07-29T20:13:33.058Z,75.54
2022-07-29T20:16:01.244Z,75.65
2022-07-29T20:18:28.862Z,75.72
2022-07-29T20:20:57.601Z,76.01
2022-07-29T20:23:25.011Z,76.05
2022-07-29T20:25:52.675Z,76.37
2022-07-29T20:28:22.415Z,76.59
2022-07-29T20:30:49.722Z,76.79
2022-07-29T20:33:17.166Z,76.93
2022-07-29T20:35:44.352Z,77.98
2022-07-29T20:38:13.976Z,78.17
2022-07-29T20:40:45.439Z,78.35
2022-07-29T20:43:12.682Z,78.77
2022-07-29T20:45:40.066Z,78.92
2022-07-29T20:48:08.306Z,80.08
2022-07-29T20:50:35.997Z,79.46
2022-07-29T20:53:03.479Z,79.66
2022-07-29T20:55:32.167Z,80.17
2022-07-29T20:57:59.361Z,80.50
2022-07-29T21:00:26.651Z,80.64
2022-07-29T21:02:54.284Z,81.49
2022-07-29T21:05:21.512Z,81.41
2022-07-29T21:07:48.888Z,81.77
2022-07-29T21:10:18.287Z,81.71
2022-07-29T21:12:48.731Z,82.72
2022-07-29T21:15:16.353Z,83.12
2022-07-29T21:17:47.343Z,83.12
2022-07-29T21:20:16.272Z,83.98
2022-07-29T21:22:43.393Z,84.03
2022-07-29T21:25:11.493Z,84.17
2022-07-29T21:27:57.305Z,84.20
2022-07-29T21:30:24.784Z,84.98
2022-07-29T21:32:51.986Z,84.88
2022-07-29T21:36:02.118Z,85.15
2022-07-29T21:38:06.532Z,85.60
2022-07-29T21:40:33.727Z,86.64
2022-07-29T21:43:00.955Z,86.79
2022-07-29T21:45:28.562Z,86.00
2022-07-29T21:47:55.806Z,86.66
2022-07-29T21:50:22.953Z,87.15
2022-07-29T21:52:50.301Z,87.41
2022-07-29T21:55:18.609Z,87.33
2022-07-29T21:57:46.581Z,87.49
2022-07-29T22:00:17.134Z,87.76
2022-07-29T22:02:45.053Z,87.72
2022-07-29T22:05:12.538Z,88.12
2022-07-29T22:07:56.208Z,88.07
2022-07-29T22:10:29.513Z,87.75
2022-07-29T22:12:58.406Z,87.91
2022-07-29T22:15:26.465Z,88.13
2022-07-29T22:17:53.820Z,88.41
2022-07-29T22:20:21.616Z,88.34
2022-07-29T22:22:48.927Z,88.26
2022-07-29T22:25:16.650Z,88.65
2022-07-29T22:27:44.525Z,88.33
2022-07-29T22:30:12.222Z,87.76
2022-07-29T22:32:39.845Z,88.10
2022-07-29T22:35:07.636Z,87.82
2022-07-29T22:37:34.913Z,87.31
2022-07-29T22:40:02.370Z,88.18
2022-07-29T22:42:30.495Z,87.48
2022-07-29T22:44:57.621Z,87.55
2022-07-29T22:47:46.062Z,87.87
2022-07-29T22:50:12.318Z,88.31
2022-07-29T22:52:39.493Z,88.45
2022-07-29T22:55:07.250Z,88.31
2022-07-29T22:57:34.800Z,88.41
2022-07-29T23:00:02.438Z,88.93
2022-07-29T23:02:29.804Z,89.42
2022-07-29T23:04:57.454Z,89.99
2022-07-29T23:07:24.587Z,89.86
2022-07-29T23:09:52.047Z,90.41
2022-07-29T23:12:19.371Z,90.71
2022-07-29T23:14:46.603Z,90.32
2022-07-29T23:17:13.930Z,90.93
2022-07-29T23:19:41.243Z,90.34
2022-07-29T23:22:08.762Z,90.80
2022-07-29T23:24:35.851Z,90.18
2022-07-29T23:27:03.800Z,91.17
2022-07-29T23:29:36.238Z,91.04
2022-07-29T23:32:04.273Z,90.92
2022-07-29T23:34:31.391Z,91.55
2022-07-29T23:36:59.191Z,91.75
2022-07-29T23:39:26.801Z,91.69
2022-07-29T23:41:53.974Z,91.83
2022-07-29T23:44:21.390Z,91.68
2022-07-29T23:46:48.889Z,92.08
2022-07-29T23:49:16.318Z,92.92
2022-07-29T23:51:43.588Z,92.52
2022-07-29T23:54:11.062Z,92.77
2022-07-29T23:56:38.303Z,93.68
2022-07-29T23:59:05.939Z,94.06
